sensor_id;sensor_type;location;lat;lon;timestamp;P1;durP1;ratioP1;P2;durP2;ratioP2
24301;SDS011;12421;49.732;20.078;2022-11-15T00:07:56;104.80;;;50.50;;
24301;SDS011;12421;49.732;20.078;2022-11-15T00:18:19;80.10;;;45.80;;
24301;SDS011;12421;49.732;20.078;2022-11-15T00:28:42;73.60;;;42.50;;
24301;SDS011;12421;49.732;20.078;2022-11-15T00:39:04;84.50;;;45.60;;
24301;SDS011;12421;49.732;20.078;2022-11-15T00:49:27;76.90;;;43.10;;
24301;SDS011;12421;49.732;20.078;2022-11-15T00:59:50;69.40;;;37.70;;
24301;SDS011;12421;49.732;20.078;2022-11-15T01:10:12;56.40;;;33.10;;
24301;SDS011;12421;49.732;20.078;2022-11-15T01:20:38;72.70;;;37.80;;
24301;SDS011;12421;49.732;20.078;2022-11-15T01:31:07;72.00;;;38.60;;
24301;SDS011;12421;49.732;20.078;2022-11-15T01:41:34;69.20;;;34.40;;
24301;SDS011;12421;49.732;20.078;2022-11-15T01:51:56;66.40;;;35.90;;
24301;SDS011;12421;49.732;20.078;2022-11-15T02:02:21;61.60;;;33.10;;
24301;SDS011;12421;49.732;20.078;2022-11-15T02:12:44;64.00;;;32.50;;
24301;SDS011;12421;49.732;20.078;2022-11-15T02:34:03;56.40;;;32.60;;
24301;SDS011;12421;49.732;20.078;2022-11-15T02:44:32;56.40;;;30.80;;
24301;SDS011;12421;49.732;20.078;2022-11-15T02:54:59;60.60;;;30.60;;
24301;SDS011;12421;49.732;20.078;2022-11-15T03:26:50;50.20;;;26.00;;
24301;SDS011;12421;49.732;20.078;2022-11-15T03:37:16;44.50;;;24.50;;
24301;SDS011;12421;49.732;20.078;2022-11-15T03:47:49;42.90;;;23.30;;
24301;SDS011;12421;49.732;20.078;2022-11-15T03:58:15;43.60;;;23.50;;
24301;SDS011;12421;49.732;20.078;2022-11-15T04:08:38;45.20;;;23.70;;
24301;SDS011;12421;49.732;20.078;2022-11-15T04:19:01;52.30;;;27.20;;
24301;SDS011;12421;49.732;20.078;2022-11-15T04:29:42;41.70;;;22.30;;
24301;SDS011;12421;49.732;20.078;2022-11-15T04:40:05;35.80;;;20.80;;
24301;SDS011;12421;49.732;20.078;2022-11-15T04:50:28;42.60;;;22.30;;
24301;SDS011;12421;49.732;20.078;2022-11-15T05:00:50;44.00;;;24.20;;
24301;SDS011;12421;49.732;20.078;2022-11-15T05:11:14;36.10;;;18.70;;
24301;SDS011;12421;49.732;20.078;2022-11-15T05:21:37;45.40;;;21.90;;
24301;SDS011;12421;49.732;20.078;2022-11-15T05:31:59;56.30;;;25.50;;
24301;SDS011;12421;49.732;20.078;2022-11-15T05:42:22;63.20;;;29.70;;
24301;SDS011;12421;49.732;20.078;2022-11-15T05:52:45;44.50;;;21.40;;
24301;SDS011;12421;49.732;20.078;2022-11-15T06:03:09;46.80;;;22.50;;
24301;SDS011;12421;49.732;20.078;2022-11-15T06:13:33;45.10;;;21.60;;
24301;SDS011;12421;49.732;20.078;2022-11-15T06:23:56;69.50;;;31.80;;
24301;SDS011;12421;49.732;20.078;2022-11-15T06:34:18;60.50;;;27.50;;
24301;SDS011;12421;49.732;20.078;2022-11-15T06:44:41;41.00;;;17.80;;
24301;SDS011;12421;49.732;20.078;2022-11-15T06:55:04;48.60;;;25.20;;
24301;SDS011;12421;49.732;20.078;2022-11-15T07:05:27;51.00;;;23.20;;
24301;SDS011;12421;49.732;20.078;2022-11-15T07:15:50;45.10;;;20.80;;
24301;SDS011;12421;49.732;20.078;2022-11-15T07:26:12;41.10;;;20.90;;
24301;SDS011;12421;49.732;20.078;2022-11-15T07:36:35;32.90;;;19.50;;
24301;SDS011;12421;49.732;20.078;2022-11-15T07:46:58;31.70;;;19.00;;
24301;SDS011;12421;49.732;20.078;2022-11-15T07:57:21;33.60;;;22.90;;
24301;SDS011;12421;49.732;20.078;2022-11-15T08:07:43;35.10;;;21.70;;
24301;SDS011;12421;49.732;20.078;2022-11-15T08:18:09;31.80;;;21.20;;
24301;SDS011;12421;49.732;20.078;2022-11-15T08:28:33;31.70;;;20.60;;
24301;SDS011;12421;49.732;20.078;2022-11-15T08:38:55;27.70;;;17.80;;
24301;SDS011;12421;49.732;20.078;2022-11-15T08:49:18;17.90;;;12.30;;
24301;SDS011;12421;49.732;20.078;2022-11-15T08:59:42;17.10;;;11.90;;
24301;SDS011;12421;49.732;20.078;2022-11-15T09:10:05;16.70;;;11.00;;
24301;SDS011;12421;49.732;20.078;2022-11-15T09:20:28;13.80;;;9.30;;
24301;SDS011;12421;49.732;20.078;2022-11-15T09:30:55;16.20;;;10.30;;
24301;SDS011;12421;49.732;20.078;2022-11-15T09:51:51;14.50;;;9.00;;
24301;SDS011;12421;49.732;20.078;2022-11-15T10:12:49;12.00;;;8.70;;
24301;SDS011;12421;49.732;20.078;2022-11-15T10:22:58;17.00;;;9.30;;
24301;SDS011;12421;49.732;20.078;2022-11-15T10:33:12;12.80;;;8.50;;
24301;SDS011;12421;49.732;20.078;2022-11-15T10:43:23;13.70;;;8.90;;
24301;SDS011;12421;49.732;20.078;2022-11-15T10:53:40;8.40;;;6.80;;
24301;SDS011;12421;49.732;20.078;2022-11-15T11:04:06;8.50;;;5.50;;
24301;SDS011;12421;49.732;20.078;2022-11-15T11:14:12;7.70;;;5.30;;
24301;SDS011;12421;49.732;20.078;2022-11-15T11:24:38;8.10;;;5.60;;
24301;SDS011;12421;49.732;20.078;2022-11-15T12:05:43;8.20;;;6.10;;
24301;SDS011;12421;49.732;20.078;2022-11-15T12:15:56;9.00;;;5.50;;
24301;SDS011;12421;49.732;20.078;2022-11-15T12:26:14;10.90;;;6.50;;
24301;SDS011;12421;49.732;20.078;2022-11-15T12:56:33;10.40;;;7.20;;
24301;SDS011;12421;49.732;20.078;2022-11-15T13:06:42;8.40;;;6.20;;
24301;SDS011;12421;49.732;20.078;2022-11-15T13:16:55;8.90;;;6.20;;
24301;SDS011;12421;49.732;20.078;2022-11-15T13:27:14;21.10;;;12.50;;
24301;SDS011;12421;49.732;20.078;2022-11-15T13:47:27;23.20;;;15.40;;
24301;SDS011;12421;49.732;20.078;2022-11-15T13:58:16;23.50;;;15.80;;
24301;SDS011;12421;49.732;20.078;2022-11-15T14:18:44;31.30;;;21.50;;
24301;SDS011;12421;49.732;20.078;2022-11-15T14:28:50;33.90;;;21.80;;
24301;SDS011;12421;49.732;20.078;2022-11-15T14:38:54;29.20;;;19.30;;
24301;SDS011;12421;49.732;20.078;2022-11-15T14:48:59;25.30;;;18.00;;
24301;SDS011;12421;49.732;20.078;2022-11-15T14:59:03;35.80;;;22.90;;
24301;SDS011;12421;49.732;20.078;2022-11-15T15:09:07;25.40;;;16.80;;
24301;SDS011;12421;49.732;20.078;2022-11-15T15:19:11;28.60;;;18.50;;
24301;SDS011;12421;49.732;20.078;2022-11-15T15:29:15;42.50;;;23.90;;
24301;SDS011;12421;49.732;20.078;2022-11-15T15:39:19;43.20;;;27.40;;
24301;SDS011;12421;49.732;20.078;2022-11-15T15:49:22;36.20;;;23.60;;
24301;SDS011;12421;49.732;20.078;2022-11-15T15:59:27;130.40;;;63.80;;
24301;SDS011;12421;49.732;20.078;2022-11-15T16:09:31;50.50;;;30.20;;
24301;SDS011;12421;49.732;20.078;2022-11-15T16:19:54;42.60;;;24.00;;
24301;SDS011;12421;49.732;20.078;2022-11-15T16:29:57;45.70;;;29.80;;
24301;SDS011;12421;49.732;20.078;2022-11-15T16:40:02;49.60;;;34.70;;
24301;SDS011;12421;49.732;20.078;2022-11-15T16:50:10;61.10;;;40.00;;
24301;SDS011;12421;49.732;20.078;2022-11-15T17:00:26;67.50;;;40.90;;
24301;SDS011;12421;49.732;20.078;2022-11-15T17:10:32;61.70;;;42.80;;
24301;SDS011;12421;49.732;20.078;2022-11-15T17:20:36;59.70;;;41.50;;
24301;SDS011;12421;49.732;20.078;2022-11-15T17:30:41;72.20;;;47.00;;
24301;SDS011;12421;49.732;20.078;2022-11-15T17:40:46;89.50;;;54.20;;
24301;SDS011;12421;49.732;20.078;2022-11-15T17:51:01;65.20;;;40.60;;
24301;SDS011;12421;49.732;20.078;2022-11-15T18:01:08;71.30;;;45.90;;
24301;SDS011;12421;49.732;20.078;2022-11-15T18:11:26;67.80;;;43.10;;
24301;SDS011;12421;49.732;20.078;2022-11-15T18:21:33;66.50;;;41.30;;
24301;SDS011;12421;49.732;20.078;2022-11-15T18:31:40;63.60;;;42.60;;
24301;SDS011;12421;49.732;20.078;2022-11-15T18:41:49;83.20;;;52.10;;
24301;SDS011;12421;49.732;20.078;2022-11-15T18:51:56;64.60;;;43.50;;
24301;SDS011;12421;49.732;20.078;2022-11-15T19:02:01;68.20;;;44.40;;
24301;SDS011;12421;49.732;20.078;2022-11-15T19:12:06;60.50;;;41.30;;
24301;SDS011;12421;49.732;20.078;2022-11-15T19:22:11;67.80;;;41.10;;
24301;SDS011;12421;49.732;20.078;2022-11-15T19:32:16;84.50;;;52.80;;
24301;SDS011;12421;49.732;20.078;2022-11-15T19:42:22;70.40;;;46.20;;
24301;SDS011;12421;49.732;20.078;2022-11-15T19:52:28;70.20;;;45.50;;
24301;SDS011;12421;49.732;20.078;2022-11-15T20:02:33;72.20;;;48.60;;
24301;SDS011;12421;49.732;20.078;2022-11-15T20:12:37;86.80;;;57.60;;
24301;SDS011;12421;49.732;20.078;2022-11-15T20:22:42;105.10;;;65.70;;
24301;SDS011;12421;49.732;20.078;2022-11-15T20:32:48;96.70;;;64.30;;
24301;SDS011;12421;49.732;20.078;2022-11-15T20:43:03;110.30;;;70.00;;
24301;SDS011;12421;49.732;20.078;2022-11-15T20:53:10;115.40;;;75.00;;
24301;SDS011;12421;49.732;20.078;2022-11-15T21:03:20;107.80;;;69.60;;
24301;SDS011;12421;49.732;20.078;2022-11-15T21:13:25;103.50;;;69.30;;
24301;SDS011;12421;49.732;20.078;2022-11-15T21:23:30;103.50;;;67.80;;
24301;SDS011;12421;49.732;20.078;2022-11-15T21:33:37;116.80;;;73.30;;
24301;SDS011;12421;49.732;20.078;2022-11-15T21:43:42;112.60;;;73.80;;
24301;SDS011;12421;49.732;20.078;2022-11-15T21:53:46;114.80;;;75.10;;
24301;SDS011;12421;49.732;20.078;2022-11-15T22:03:50;100.10;;;65.70;;
24301;SDS011;12421;49.732;20.078;2022-11-15T22:13:56;110.30;;;67.50;;
24301;SDS011;12421;49.732;20.078;2022-11-15T22:24:00;94.40;;;62.40;;
24301;SDS011;12421;49.732;20.078;2022-11-15T22:34:05;99.10;;;65.00;;
24301;SDS011;12421;49.732;20.078;2022-11-15T22:44:09;111.60;;;73.00;;
24301;SDS011;12421;49.732;20.078;2022-11-15T22:54:13;106.70;;;66.20;;
24301;SDS011;12421;49.732;20.078;2022-11-15T23:04:17;97.70;;;66.40;;
24301;SDS011;12421;49.732;20.078;2022-11-15T23:14:21;89.30;;;63.10;;
24301;SDS011;12421;49.732;20.078;2022-11-15T23:24:25;99.40;;;65.90;;
24301;SDS011;12421;49.732;20.078;2022-11-15T23:34:30;99.40;;;65.90;;
24301;SDS011;12421;49.732;20.078;2022-11-15T23:44:35;109.70;;;69.20;;
24301;SDS011;12421;49.732;20.078;2022-11-15T23:54:39;90.20;;;60.50;;
